createdAt,value
2018-01-01T00:00:08.748Z,99.99
2018-01-01T00:01:08.747Z,99.99
2018-01-01T00:02:08.740Z,99.99
2018-01-01T00:03:08.733Z,99.99
2018-01-01T00:04:08.728Z,99.99
2018-01-01T00:05:08.721Z,99.99
2018-01-01T00:06:08.714Z,99.99
2018-01-01T00:07:08.750Z,99.99
2018-01-01T00:08:08.701Z,99.93
2018-01-01T00:09:08.691Z,99.69
2018-01-01T00:10:08.713Z,99.51
2018-01-01T00:11:08.678Z,99.79
2018-01-01T00:12:08.671Z,99.51
2018-01-01T00:13:08.666Z,98.74
2018-01-01T00:14:08.658Z,99.03
2018-01-01T00:15:08.652Z,98.74
2018-01-01T00:16:08.646Z,98.94
2018-01-01T00:17:08.644Z,98.18
2018-01-01T00:18:08.637Z,98.46
2018-01-01T00:19:08.632Z,97.70
2018-01-01T00:20:08.624Z,98.36
2018-01-01T00:21:08.619Z,98.74
2018-01-01T00:22:08.611Z,99.03
2018-01-01T00:23:08.612Z,99.69
2018-01-01T00:24:08.598Z,98.84
2018-01-01T00:25:08.588Z,99.03
2018-01-01T00:26:08.583Z,99.22
2018-01-01T00:27:08.576Z,98.65
2018-01-01T00:28:08.569Z,98.65
2018-01-01T00:29:08.567Z,97.99
2018-01-01T00:30:08.556Z,98.08
2018-01-01T00:31:08.580Z,98.27
2018-01-01T00:32:08.543Z,98.08
2018-01-01T00:33:08.541Z,98.08
2018-01-01T00:34:08.534Z,98.22
2018-01-01T00:35:08.528Z,98.22
2018-01-01T00:36:08.523Z,97.93
2018-01-01T00:37:08.516Z,97.93
2018-01-01T00:38:08.508Z,98.41
2018-01-01T00:39:08.503Z,97.93
2018-01-01T00:40:08.495Z,98.88
2018-01-01T00:41:08.485Z,98.79
2018-01-01T00:42:08.478Z,98.60
2018-01-01T00:43:08.471Z,98.98
2018-01-01T00:44:08.465Z,98.98
2018-01-01T00:45:08.459Z,99.08
2018-01-01T00:46:08.452Z,98.98
2018-01-01T00:47:08.445Z,98.50
2018-01-01T00:48:08.440Z,98.88
2018-01-01T00:49:08.438Z,99.17
2018-01-01T00:50:08.429Z,98.98
2018-01-01T00:51:08.422Z,98.50
2018-01-01T00:52:08.416Z,98.32
2018-01-01T00:53:08.410Z,98.03
2018-01-01T00:54:08.402Z,98.88
2018-01-01T00:55:08.395Z,98.74
2018-01-01T00:56:08.389Z,98.88
2018-01-01T00:57:08.378Z,98.32
2018-01-01T00:58:08.371Z,98.74
2018-01-01T00:59:08.364Z,99.12
2018-01-01T01:00:08.357Z,99.17
2018-01-01T01:01:08.355Z,98.98
2018-01-01T01:02:08.347Z,98.60
2018-01-01T01:03:08.340Z,98.79
2018-01-01T01:04:08.333Z,98.98
2018-01-01T01:05:08.323Z,98.79
2018-01-01T01:06:08.314Z,98.60
2018-01-01T01:07:08.309Z,98.03
2018-01-01T01:08:08.302Z,97.84
2018-01-01T01:09:08.296Z,97.79
2018-01-01T01:10:08.288Z,98.50
2018-01-01T01:11:08.280Z,98.88
2018-01-01T01:12:08.274Z,98.22
2018-01-01T01:13:08.270Z,98.50
2018-01-01T01:14:08.263Z,98.13
2018-01-01T01:15:08.256Z,97.65
2018-01-01T01:16:08.249Z,98.22
2018-01-01T01:17:08.242Z,98.32
2018-01-01T01:18:08.243Z,97.84
2018-01-01T01:19:08.230Z,98.03
2018-01-01T01:20:08.221Z,98.22
2018-01-01T01:21:08.209Z,98.22
2018-01-01T01:22:08.201Z,98.13
2018-01-01T01:23:08.194Z,98.32
2018-01-01T01:24:08.188Z,97.46
2018-01-01T01:25:08.181Z,96.98
2018-01-01T01:26:08.173Z,96.79
2018-01-01T01:27:08.166Z,96.31
2018-01-01T01:28:08.159Z,96.79
2018-01-01T01:29:08.157Z,96.70
2018-01-01T01:30:08.149Z,96.31
2018-01-01T01:31:08.144Z,96.03
2018-01-01T01:32:08.135Z,96.51
2018-01-01T01:33:08.129Z,95.84
2018-01-01T01:34:08.121Z,95.60
2018-01-01T01:35:08.112Z,95.22
2018-01-01T01:36:08.106Z,94.98
2018-01-01T01:37:08.095Z,95.22
2018-01-01T01:38:08.087Z,94.74
2018-01-01T01:39:08.079Z,94.70
2018-01-01T01:40:08.074Z,94.18
2018-01-01T01:41:08.065Z,93.79
2018-01-01T01:42:08.059Z,94.08
2018-01-01T01:43:08.052Z,93.32
2018-01-01T01:44:08.044Z,93.84
2018-01-01T01:45:08.042Z,93.60
2018-01-01T01:46:08.033Z,93.70
2018-01-01T01:47:08.026Z,93.51
2018-01-01T01:48:08.018Z,93.79
2018-01-01T01:49:08.013Z,93.41
2018-01-01T01:50:08.004Z,93.41
2018-01-01T01:51:08.000Z,93.89
2018-01-01T01:52:07.989Z,93.79
2018-01-01T01:53:07.978Z,93.89
2018-01-01T01:54:07.970Z,93.89
2018-01-01T01:55:07.963Z,93.79
2018-01-01T01:56:07.955Z,94.08
2018-01-01T01:57:07.949Z,93.70
2018-01-01T01:58:07.941Z,93.70
2018-01-01T01:59:07.937Z,93.60
2018-01-01T02:00:07.925Z,93.79
2018-01-01T02:01:07.924Z,93.60
2018-01-01T02:02:07.916Z,93.70
2018-01-01T02:03:07.908Z,93.79
2018-01-01T02:04:07.902Z,92.84
2018-01-01T02:05:07.889Z,93.51
2018-01-01T02:06:07.881Z,93.32
2018-01-01T02:07:07.874Z,93.04
2018-01-01T02:08:07.866Z,93.13
2018-01-01T02:09:07.864Z,93.04
2018-01-01T02:10:07.855Z,93.89
2018-01-01T02:11:07.849Z,93.04
2018-01-01T02:12:07.845Z,93.13
2018-01-01T02:13:07.834Z,93.70
2018-01-01T02:14:07.826Z,93.60
2018-01-01T02:15:07.818Z,93.70
2018-01-01T02:16:07.811Z,93.13
2018-01-01T02:17:07.801Z,93.23
2018-01-01T02:18:07.792Z,93.04
2018-01-01T02:19:07.784Z,93.79
2018-01-01T02:20:07.778Z,93.60
2018-01-01T02:21:07.772Z,93.13
2018-01-01T02:22:07.762Z,93.13
2018-01-01T02:23:07.756Z,93.13
2018-01-01T02:24:07.750Z,93.13
2018-01-01T02:25:07.745Z,93.60
2018-01-01T02:26:07.736Z,93.60
2018-01-01T02:27:07.729Z,94.27
2018-01-01T02:28:07.723Z,93.60
2018-01-01T02:29:07.715Z,93.51
2018-01-01T02:30:07.707Z,93.13
2018-01-01T02:31:07.699Z,93.04
2018-01-01T02:32:07.693Z,93.23
2018-01-01T02:33:07.680Z,93.13
2018-01-01T02:34:07.673Z,93.37
2018-01-01T02:35:07.665Z,93.23
2018-01-01T02:36:07.657Z,92.84
2018-01-01T02:37:07.651Z,92.84
2018-01-01T02:38:07.642Z,93.04
2018-01-01T02:39:07.636Z,93.51
2018-01-01T02:40:07.628Z,93.51
2018-01-01T02:41:07.627Z,94.03
2018-01-01T02:42:07.617Z,93.51
2018-01-01T02:43:07.609Z,93.41
2018-01-01T02:44:07.604Z,93.51
2018-01-01T02:45:07.598Z,93.51
2018-01-01T02:46:07.587Z,93.79
2018-01-01T02:47:07.580Z,93.70
2018-01-01T02:48:07.573Z,94.08
2018-01-01T02:49:07.562Z,93.89
2018-01-01T02:50:07.553Z,93.65
2018-01-01T02:51:07.548Z,93.55
2018-01-01T02:52:07.537Z,93.08
2018-01-01T02:53:07.532Z,93.60
2018-01-01T02:54:07.528Z,93.51
2018-01-01T02:55:07.518Z,93.55
2018-01-01T02:56:07.514Z,94.03
2018-01-01T02:57:07.508Z,93.27
2018-01-01T02:58:07.498Z,93.18
2018-01-01T02:59:07.492Z,92.89
2018-01-01T03:00:07.485Z,93.08
2018-01-01T03:01:07.477Z,93.37
2018-01-01T03:02:07.472Z,93.46
2018-01-01T03:03:07.461Z,93.04
2018-01-01T03:04:07.455Z,92.84
2018-01-01T03:05:07.443Z,93.84
2018-01-01T03:06:07.435Z,93.08
2018-01-01T03:07:07.429Z,93.04
2018-01-01T03:08:07.420Z,92.79
2018-01-01T03:09:07.418Z,93.46
2018-01-01T03:10:07.410Z,93.18
2018-01-01T03:11:07.403Z,93.37
2018-01-01T03:12:07.396Z,93.37
2018-01-01T03:13:07.385Z,93.46
2018-01-01T03:14:07.377Z,93.65
2018-01-01T03:15:07.372Z,93.37
2018-01-01T03:16:07.362Z,92.89
2018-01-01T03:17:07.357Z,92.70
2018-01-01T03:18:07.348Z,92.32
2018-01-01T03:19:07.341Z,92.03
2018-01-01T03:20:07.334Z,92.03
2018-01-01T03:21:07.331Z,92.03
2018-01-01T03:22:07.324Z,92.32
2018-01-01T03:23:07.318Z,92.32
2018-01-01T03:24:07.309Z,92.32
2018-01-01T03:25:07.303Z,92.41
2018-01-01T03:26:07.296Z,92.99
2018-01-01T03:27:07.287Z,92.32
2018-01-01T03:28:07.281Z,92.89
2018-01-01T03:29:07.269Z,92.79
2018-01-01T03:30:07.263Z,92.79
2018-01-01T03:31:07.256Z,92.70
2018-01-01T03:32:07.248Z,93.79
2018-01-01T03:33:07.240Z,93.46
2018-01-01T03:34:07.232Z,93.51
2018-01-01T03:35:07.226Z,93.60
2018-01-01T03:36:07.218Z,93.51
2018-01-01T03:37:07.215Z,94.08
2018-01-01T03:38:07.208Z,93.98
2018-01-01T03:39:07.199Z,94.46
2018-01-01T03:40:07.192Z,95.12
2018-01-01T03:41:07.186Z,94.84
2018-01-01T03:42:07.178Z,94.65
2018-01-01T03:43:07.171Z,94.65
2018-01-01T03:44:07.163Z,94.84
2018-01-01T03:45:07.152Z,95.22
2018-01-01T03:46:07.143Z,95.70
2018-01-01T03:47:07.136Z,95.51
2018-01-01T03:48:07.129Z,95.98
2018-01-01T03:49:07.123Z,95.41
2018-01-01T03:50:07.114Z,95.79
2018-01-01T03:51:07.107Z,95.12
2018-01-01T03:52:07.099Z,95.41
2018-01-01T03:53:07.096Z,94.84
2018-01-01T03:54:07.089Z,94.65
2018-01-01T03:55:07.082Z,95.03
2018-01-01T03:56:07.074Z,95.03
2018-01-01T03:57:07.067Z,94.84
2018-01-01T03:58:07.107Z,95.03
2018-01-01T03:59:07.052Z,95.12
2018-01-01T04:00:07.044Z,94.93
2018-01-01T04:01:07.036Z,94.56
2018-01-01T04:02:07.025Z,94.65
2018-01-01T04:03:07.017Z,94.27
2018-01-01T04:04:07.011Z,94.27
2018-01-01T04:05:07.003Z,94.18
2018-01-01T04:06:06.996Z,94.18
2018-01-01T04:07:06.988Z,94.08
2018-01-01T04:08:06.980Z,93.89
2018-01-01T04:09:06.978Z,94.37
2018-01-01T04:10:06.970Z,94.08
2018-01-01T04:11:06.964Z,93.98
2018-01-01T04:12:06.957Z,93.98
2018-01-01T04:13:06.944Z,94.08
2018-01-01T04:14:06.936Z,93.89
2018-01-01T04:15:06.934Z,93.89
2018-01-01T04:16:06.923Z,94.27
2018-01-01T04:17:06.919Z,93.60
2018-01-01T04:18:06.911Z,93.60
2018-01-01T04:19:06.903Z,93.79
2018-01-01T04:20:06.897Z,93.41
2018-01-01T04:21:06.890Z,93.41
2018-01-01T04:22:06.882Z,93.70
2018-01-01T04:23:06.875Z,93.60
2018-01-01T04:24:06.868Z,94.27
2018-01-01T04:25:06.857Z,93.89
2018-01-01T04:26:06.848Z,94.27
2018-01-01T04:27:06.840Z,94.37
2018-01-01T04:28:06.833Z,94.37
2018-01-01T04:29:06.826Z,94.18
2018-01-01T04:30:06.818Z,94.65
2018-01-01T04:31:06.811Z,94.65
2018-01-01T04:32:06.803Z,94.46
2018-01-01T04:33:06.800Z,94.37
2018-01-01T04:34:06.793Z,94.65
2018-01-01T04:35:06.786Z,94.65
2018-01-01T04:36:06.784Z,95.03
2018-01-01T04:37:06.771Z,94.56
2018-01-01T04:38:06.764Z,94.65
2018-01-01T04:39:06.756Z,95.12
2018-01-01T04:40:06.748Z,95.12
2018-01-01T04:41:06.738Z,95.03
2018-01-01T04:42:06.728Z,94.93
2018-01-01T04:43:06.722Z,94.93
2018-01-01T04:44:06.716Z,94.56
2018-01-01T04:45:06.707Z,95.03
2018-01-01T04:46:06.701Z,94.74
2018-01-01T04:47:06.693Z,94.56
2018-01-01T04:48:06.685Z,95.22
2018-01-01T04:49:06.683Z,94.84
2018-01-01T04:50:06.673Z,94.84
2018-01-01T04:51:06.666Z,95.03
2018-01-01T04:52:06.660Z,94.74
2018-01-01T04:53:06.653Z,95.22
2018-01-01T04:54:06.646Z,95.03
2018-01-01T04:55:06.636Z,94.74
2018-01-01T04:56:06.630Z,94.65
2018-01-01T04:57:06.617Z,95.03
2018-01-01T04:58:06.611Z,94.84
2018-01-01T04:59:06.605Z,94.84
2018-01-01T05:00:06.595Z,94.84
2018-01-01T05:01:06.589Z,94.56
2018-01-01T05:02:06.580Z,94.93
2018-01-01T05:03:06.573Z,95.12
2018-01-01T05:04:06.565Z,95.32
2018-01-01T05:05:06.562Z,94.65
2018-01-01T05:06:06.555Z,95.12
2018-01-01T05:07:06.547Z,94.65
2018-01-01T05:08:06.541Z,94.56
2018-01-01T05:09:06.540Z,94.37
2018-01-01T05:10:06.524Z,94.37
2018-01-01T05:11:06.517Z,94.51
2018-01-01T05:12:06.510Z,94.22
2018-01-01T05:13:06.499Z,94.32
2018-01-01T05:14:06.490Z,94.32
2018-01-01T05:15:06.483Z,94.42
2018-01-01T05:16:06.475Z,94.51
2018-01-01T05:17:06.490Z,94.32
2018-01-01T05:18:06.464Z,94.51
2018-01-01T05:19:06.457Z,94.60
2018-01-01T05:20:06.450Z,94.98
2018-01-01T05:21:06.438Z,94.98
2018-01-01T05:22:06.430Z,94.51
2018-01-01T05:23:06.422Z,94.70
2018-01-01T05:24:06.415Z,94.79
2018-01-01T05:25:06.407Z,95.27
2018-01-01T05:26:06.399Z,95.08
2018-01-01T05:27:06.391Z,95.75
2018-01-01T05:28:06.385Z,95.94
2018-01-01T05:29:06.382Z,95.46
2018-01-01T05:30:06.373Z,95.75
2018-01-01T05:31:06.365Z,96.41
2018-01-01T05:32:06.358Z,96.31
2018-01-01T05:33:06.350Z,96.31
2018-01-01T05:34:06.344Z,96.22
2018-01-01T05:35:06.334Z,96.12
2018-01-01T05:36:06.327Z,96.12
2018-01-01T05:37:06.315Z,96.60
2018-01-01T05:38:06.307Z,96.41
2018-01-01T05:39:06.299Z,96.12
2018-01-01T05:40:06.291Z,96.41
2018-01-01T05:41:06.285Z,96.22
2018-01-01T05:42:06.275Z,96.79
2018-01-01T05:43:06.268Z,96.22
2018-01-01T05:44:06.262Z,96.69
2018-01-01T05:45:06.257Z,96.41
2018-01-01T05:46:06.248Z,96.69
2018-01-01T05:47:06.242Z,96.22
2018-01-01T05:48:06.236Z,96.45
2018-01-01T05:49:06.226Z,96.65
2018-01-01T05:50:06.218Z,96.08
2018-01-01T05:51:06.209Z,97.12
2018-01-01T05:52:06.204Z,96.93
2018-01-01T05:53:06.189Z,97.45
2018-01-01T05:54:06.181Z,97.17
2018-01-01T05:55:06.173Z,96.93
2018-01-01T05:56:06.165Z,96.98
2018-01-01T05:57:06.157Z,97.12
2018-01-01T05:58:06.148Z,96.69
2018-01-01T05:59:06.142Z,97.08
2018-01-01T06:00:06.133Z,97.17
2018-01-01T06:01:06.131Z,97.17
2018-01-01T06:02:06.121Z,97.36
2018-01-01T06:03:06.113Z,96.50
2018-01-01T06:04:06.105Z,96.12
2018-01-01T06:05:06.097Z,96.50
2018-01-01T06:06:06.089Z,96.50
2018-01-01T06:07:06.082Z,96.22
2018-01-01T06:08:06.074Z,96.60
2018-01-01T06:09:06.063Z,96.12
2018-01-01T06:10:06.054Z,96.31
2018-01-01T06:11:06.048Z,96.22
2018-01-01T06:12:06.039Z,96.41
2018-01-01T06:13:06.033Z,95.94
2018-01-01T06:14:06.026Z,96.50
2018-01-01T06:15:06.016Z,96.12
2018-01-01T06:16:06.009Z,96.22
2018-01-01T06:17:06.005Z,96.31
2018-01-01T06:18:05.996Z,95.75
2018-01-01T06:19:05.990Z,95.75
2018-01-01T06:20:05.981Z,95.75
2018-01-01T06:21:05.974Z,95.94
2018-01-01T06:22:05.966Z,95.75
2018-01-01T06:23:05.958Z,95.75
2018-01-01T06:24:05.951Z,95.75
2018-01-01T06:25:05.939Z,95.56
2018-01-01T06:26:05.931Z,95.65
2018-01-01T06:27:05.930Z,95.36
2018-01-01T06:28:05.916Z,95.94
2018-01-01T06:29:05.913Z,95.84
2018-01-01T06:30:05.902Z,95.84
2018-01-01T06:31:05.894Z,96.31
2018-01-01T06:32:05.886Z,95.75
2018-01-01T06:33:05.883Z,95.75
2018-01-01T06:34:05.874Z,95.84
2018-01-01T06:35:05.868Z,95.94
2018-01-01T06:36:05.861Z,95.56
2018-01-01T06:37:05.854Z,95.65
2018-01-01T06:38:05.845Z,95.94
2018-01-01T06:39:05.837Z,95.98
2018-01-01T06:40:05.830Z,95.75
2018-01-01T06:41:05.819Z,94.98
2018-01-01T06:42:05.810Z,95.84
2018-01-01T06:43:05.803Z,95.46
2018-01-01T06:44:05.796Z,95.94
2018-01-01T06:45:05.789Z,95.56
2018-01-01T06:46:05.780Z,95.75
2018-01-01T06:47:05.774Z,95.94
2018-01-01T06:48:05.767Z,96.31
2018-01-01T06:49:05.765Z,96.31
2018-01-01T06:50:05.756Z,96.50
2018-01-01T06:51:05.748Z,95.84
2018-01-01T06:52:05.741Z,96.41
2018-01-01T06:53:05.734Z,96.12
2018-01-01T06:54:05.726Z,96.31
2018-01-01T06:55:05.719Z,96.12
2018-01-01T06:56:05.711Z,95.94
2018-01-01T06:57:05.700Z,96.12
2018-01-01T06:58:05.694Z,96.22
2018-01-01T06:59:05.685Z,96.31
2018-01-01T07:00:05.679Z,96.60
2018-01-01T07:01:05.671Z,96.31
2018-01-01T07:02:05.663Z,96.98
2018-01-01T07:03:05.654Z,97.12
2018-01-01T07:04:05.647Z,96.98
2018-01-01T07:05:05.644Z,97.27
2018-01-01T07:06:05.635Z,97.17
2018-01-01T07:07:05.627Z,96.98
2018-01-01T07:08:05.620Z,96.98
2018-01-01T07:09:05.613Z,97.36
2018-01-01T07:10:05.604Z,97.17
2018-01-01T07:11:05.598Z,96.74
2018-01-01T07:12:05.592Z,96.74
2018-01-01T07:13:05.578Z,97.55
2018-01-01T07:14:05.569Z,97.36
2018-01-01T07:15:05.562Z,97.36
2018-01-01T07:16:05.554Z,96.93
2018-01-01T07:17:05.546Z,97.31
2018-01-01T07:18:05.537Z,97.41
2018-01-01T07:19:05.529Z,97.41
2018-01-01T07:20:05.524Z,97.22
2018-01-01T07:21:05.520Z,97.69
2018-01-01T07:22:05.511Z,97.12
2018-01-01T07:23:05.503Z,97.60
2018-01-01T07:24:05.495Z,97.60
2018-01-01T07:25:05.483Z,97.22
2018-01-01T07:26:05.476Z,97.60
2018-01-01T07:27:05.466Z,97.78
2018-01-01T07:28:05.458Z,98.07
2018-01-01T07:29:05.455Z,97.88
2018-01-01T07:30:05.448Z,98.07
2018-01-01T07:31:05.439Z,98.07
2018-01-01T07:32:05.432Z,97.78
2018-01-01T07:33:05.424Z,97.69
2018-01-01T07:34:05.415Z,97.22
2018-01-01T07:35:05.406Z,97.50
2018-01-01T07:36:05.400Z,97.50
2018-01-01T07:37:05.387Z,97.31
2018-01-01T07:38:05.378Z,97.31
2018-01-01T07:39:05.398Z,97.31
2018-01-01T07:40:05.363Z,96.84
2018-01-01T07:41:05.355Z,97.17
2018-01-01T07:42:05.348Z,96.93
2018-01-01T07:43:05.338Z,96.60
2018-01-01T07:44:05.332Z,96.69
2018-01-01T07:45:05.328Z,96.69
2018-01-01T07:46:05.319Z,96.79
2018-01-01T07:47:05.311Z,96.17
2018-01-01T07:48:05.304Z,96.31
2018-01-01T07:49:05.296Z,96.03
2018-01-01T07:50:05.287Z,96.31
2018-01-01T07:51:05.280Z,96.31
2018-01-01T07:52:05.272Z,96.31
2018-01-01T07:53:05.260Z,96.41
2018-01-01T07:54:05.252Z,96.41
2018-01-01T07:55:05.244Z,96.22
2018-01-01T07:56:05.238Z,96.31
2018-01-01T07:57:05.230Z,95.94
2018-01-01T07:58:05.222Z,95.75
2018-01-01T07:59:05.213Z,95.75
2018-01-01T08:00:05.206Z,95.84
2018-01-01T08:01:05.203Z,95.75
2018-01-01T08:02:05.193Z,95.27
2018-01-01T08:03:05.187Z,95.36
2018-01-01T08:04:05.179Z,95.36
2018-01-01T08:05:05.171Z,95.27
2018-01-01T08:06:05.163Z,95.27
2018-01-01T08:07:05.160Z,95.08
2018-01-01T08:08:05.149Z,95.36
2018-01-01T08:09:05.137Z,95.27
2018-01-01T08:10:05.129Z,95.36
2018-01-01T08:11:05.122Z,95.08
2018-01-01T08:12:05.114Z,95.75
2018-01-01T08:13:05.108Z,95.27
2018-01-01T08:14:05.098Z,95.36
2018-01-01T08:15:05.091Z,94.60
2018-01-01T08:16:05.084Z,94.70
2018-01-01T08:17:05.082Z,95.27
2018-01-01T08:18:05.073Z,95.17
2018-01-01T08:19:05.065Z,95.56
2018-01-01T08:20:05.059Z,95.65
2018-01-01T08:21:05.051Z,95.36
2018-01-01T08:22:05.043Z,95.27
2018-01-01T08:23:05.037Z,95.36
2018-01-01T08:24:05.028Z,94.98
2018-01-01T08:25:05.018Z,94.70
2018-01-01T08:26:05.010Z,94.70
2018-01-01T08:27:05.003Z,94.98
2018-01-01T08:28:04.996Z,94.70
2018-01-01T08:29:04.992Z,94.79
2018-01-01T08:30:04.986Z,94.79
2018-01-01T08:31:04.976Z,94.79
2018-01-01T08:32:04.969Z,95.08
2018-01-01T08:33:04.958Z,95.08
2018-01-01T08:34:04.973Z,94.51
2018-01-01T08:35:04.944Z,94.60
2018-01-01T08:36:04.936Z,94.32
2018-01-01T08:37:04.929Z,94.13
2018-01-01T08:38:04.921Z,94.22
2018-01-01T08:39:04.913Z,94.13
2018-01-01T08:40:04.907Z,94.22
2018-01-01T08:41:04.904Z,94.22
2018-01-01T08:42:04.896Z,93.75
2018-01-01T08:43:04.889Z,94.13
2018-01-01T08:44:04.886Z,93.65
2018-01-01T08:45:04.874Z,92.80
2018-01-01T08:46:04.866Z,93.18
2018-01-01T08:47:04.860Z,92.61
2018-01-01T08:48:04.853Z,93.46
2018-01-01T08:49:04.841Z,93.55
2018-01-01T08:50:04.833Z,93.27
2018-01-01T08:51:04.825Z,93.18
2018-01-01T08:52:04.819Z,93.18
2018-01-01T08:53:04.811Z,93.27
2018-01-01T08:54:04.803Z,93.27
2018-01-01T08:55:04.796Z,92.80
2018-01-01T08:56:04.789Z,93.46
2018-01-01T08:57:04.786Z,93.65
2018-01-01T08:58:04.778Z,93.37
2018-01-01T08:59:04.773Z,94.03
2018-01-01T09:00:04.764Z,94.13
2018-01-01T09:01:04.757Z,94.60
2018-01-01T09:02:04.750Z,95.36
2018-01-01T09:03:04.742Z,94.98
2018-01-01T09:04:04.737Z,95.08
2018-01-01T09:05:04.724Z,95.46
2018-01-01T09:06:04.717Z,95.46
2018-01-01T09:07:04.709Z,96.60
2018-01-01T09:08:04.703Z,96.31
2018-01-01T09:09:04.695Z,96.41
2018-01-01T09:10:04.687Z,95.75
2018-01-01T09:11:04.681Z,95.84
2018-01-01T09:12:04.674Z,95.94
2018-01-01T09:13:04.671Z,95.75
2018-01-01T09:14:04.663Z,95.36
2018-01-01T09:15:04.671Z,95.75
2018-01-01T09:16:04.650Z,96.12
2018-01-01T09:17:04.643Z,96.12
2018-01-01T09:18:04.636Z,96.12
2018-01-01T09:19:04.629Z,96.50
2018-01-01T09:20:04.623Z,96.60
2018-01-01T09:21:04.611Z,96.31
2018-01-01T09:22:04.605Z,96.22
2018-01-01T09:23:04.598Z,96.31
2018-01-01T09:24:04.591Z,96.36
2018-01-01T09:25:04.585Z,96.55
2018-01-01T09:26:04.578Z,96.46
2018-01-01T09:27:04.571Z,96.55
2018-01-01T09:28:04.565Z,95.70
2018-01-01T09:29:04.564Z,95.60
2018-01-01T09:30:04.556Z,95.41
2018-01-01T09:31:04.549Z,95.36
2018-01-01T09:32:04.547Z,95.75
2018-01-01T09:33:04.533Z,95.75
2018-01-01T09:34:04.526Z,95.84
2018-01-01T09:35:04.520Z,96.22
2018-01-01T09:36:04.515Z,96.12
2018-01-01T09:37:04.513Z,96.60
2018-01-01T09:38:04.505Z,97.36
2018-01-01T09:39:04.499Z,97.36
2018-01-01T09:40:04.500Z,97.08
2018-01-01T09:41:04.488Z,96.50
2018-01-01T09:42:04.480Z,96.12
2018-01-01T09:43:04.474Z,96.98
2018-01-01T09:44:04.469Z,96.98
2018-01-01T09:45:04.459Z,97.17
2018-01-01T09:46:04.451Z,96.98
2018-01-01T09:47:04.445Z,97.08
2018-01-01T09:48:04.439Z,97.27
2018-01-01T09:49:04.433Z,96.89
2018-01-01T09:50:04.426Z,97.17
2018-01-01T09:51:04.418Z,97.31
2018-01-01T09:52:04.413Z,96.69
2018-01-01T09:53:04.411Z,96.79
2018-01-01T09:54:04.403Z,96.50
2018-01-01T09:55:04.399Z,96.50
2018-01-01T09:56:04.398Z,96.12
2018-01-01T09:57:04.384Z,96.12
2018-01-01T09:58:04.378Z,97.27
2018-01-01T09:59:04.373Z,97.08
2018-01-01T10:00:04.365Z,96.98
2018-01-01T10:01:04.355Z,96.60
2018-01-01T10:02:04.348Z,96.89
2018-01-01T10:03:04.347Z,96.50
2018-01-01T10:04:04.335Z,96.31
2018-01-01T10:05:04.328Z,96.22
2018-01-01T10:06:04.322Z,96.31
2018-01-01T10:07:04.314Z,96.22
2018-01-01T10:08:04.307Z,96.69
2018-01-01T10:09:04.305Z,96.41
2018-01-01T10:10:04.298Z,96.84
2018-01-01T10:11:04.291Z,96.46
2018-01-01T10:12:04.285Z,96.17
2018-01-01T10:13:04.278Z,96.26
2018-01-01T10:14:04.270Z,96.17
2018-01-01T10:15:04.264Z,96.36
2018-01-01T10:16:04.258Z,96.55
2018-01-01T10:17:04.248Z,95.79
2018-01-01T10:18:04.239Z,95.70
2018-01-01T10:19:04.233Z,95.51
2018-01-01T10:20:04.226Z,95.41
2018-01-01T10:21:04.221Z,95.32
2018-01-01T10:22:04.214Z,95.22
2018-01-01T10:23:04.212Z,95.12
2018-01-01T10:24:04.200Z,95.41
2018-01-01T10:25:04.197Z,95.41
2018-01-01T10:26:04.191Z,95.03
2018-01-01T10:27:04.184Z,94.93
2018-01-01T10:28:04.177Z,94.56
2018-01-01T10:29:04.171Z,94.84
2018-01-01T10:30:04.165Z,94.84
2018-01-01T10:31:04.159Z,95.22
2018-01-01T10:32:04.152Z,94.56
2018-01-01T10:33:04.142Z,94.46
2018-01-01T10:34:04.137Z,94.37
2018-01-01T10:35:04.128Z,94.37
2018-01-01T10:36:04.120Z,94.56
2018-01-01T10:37:04.121Z,94.03
2018-01-01T10:38:04.113Z,94.13
2018-01-01T10:39:04.107Z,93.70
2018-01-01T10:40:04.099Z,93.04
2018-01-01T10:41:04.090Z,93.18
2018-01-01T10:42:04.082Z,93.84
2018-01-01T10:43:04.076Z,93.37
2018-01-01T10:44:04.070Z,93.46
2018-01-01T10:45:04.067Z,94.13
2018-01-01T10:46:04.056Z,93.55
2018-01-01T10:47:04.051Z,93.55
2018-01-01T10:48:04.044Z,93.55
2018-01-01T10:49:04.042Z,93.27
2018-01-01T10:50:04.035Z,93.65
2018-01-01T10:51:04.029Z,93.46
2018-01-01T10:52:04.022Z,93.65
2018-01-01T10:53:04.017Z,93.32
2018-01-01T10:54:04.009Z,93.65
2018-01-01T10:55:04.006Z,92.89
2018-01-01T10:56:04.003Z,93.41
2018-01-01T10:57:03.988Z,92.70
2018-01-01T10:58:03.980Z,92.89
2018-01-01T10:59:03.974Z,92.89
2018-01-01T11:00:03.969Z,93.18
2018-01-01T11:01:03.962Z,92.60
2018-01-01T11:02:03.954Z,92.08
2018-01-01T11:03:03.949Z,91.31
2018-01-01T11:04:03.944Z,91.31
2018-01-01T11:05:03.941Z,90.56
2018-01-01T11:06:03.935Z,90.56
2018-01-01T11:07:03.933Z,89.98
2018-01-01T11:08:03.924Z,90.56
2018-01-01T11:09:03.920Z,90.56
2018-01-01T11:10:03.911Z,90.17
2018-01-01T11:11:03.925Z,89.70
2018-01-01T11:12:03.904Z,89.79
2018-01-01T11:13:03.897Z,89.32
2018-01-01T11:14:03.886Z,89.98
2018-01-01T11:15:03.887Z,89.22
2018-01-01T11:16:03.879Z,89.41
2018-01-01T11:17:03.870Z,89.41
2018-01-01T11:18:03.865Z,88.89
2018-01-01T11:19:03.858Z,88.27
2018-01-01T11:20:03.852Z,88.56
2018-01-01T11:21:03.851Z,88.46
2018-01-01T11:22:03.845Z,88.65
2018-01-01T11:23:03.841Z,88.41
2018-01-01T11:24:03.836Z,88.55
2018-01-01T11:25:03.831Z,86.88
2018-01-01T11:26:03.825Z,85.73
2018-01-01T11:27:03.978Z,84.49
2018-01-01T11:28:03.815Z,84.25
2018-01-01T11:29:03.807Z,82.97
2018-01-01T11:30:03.802Z,83.24
2018-01-01T11:31:03.798Z,82.28
2018-01-01T11:32:03.794Z,81.04
2018-01-01T11:33:03.791Z,79.85
2018-01-01T11:34:03.786Z,80.04
2018-01-01T11:35:03.786Z,79.12
2018-01-01T11:36:03.779Z,78.37
2018-01-01T11:37:03.780Z,78.62
2018-01-01T11:38:03.776Z,79.67
2018-01-01T11:39:03.774Z,79.57
2018-01-01T11:40:03.770Z,80.05
2018-01-01T11:41:03.764Z,79.63
2018-01-01T11:42:03.759Z,80.20
2018-01-01T11:43:03.756Z,80.96
2018-01-01T11:44:03.754Z,80.68
2018-01-01T11:45:03.754Z,80.54
2018-01-01T11:46:03.754Z,81.59
2018-01-01T11:47:03.747Z,82.20
2018-01-01T11:48:03.745Z,82.20
2018-01-01T11:49:03.742Z,81.92
2018-01-01T11:50:03.737Z,82.30
2018-01-01T11:51:03.735Z,82.40
2018-01-01T11:52:03.731Z,82.40
2018-01-01T11:53:03.722Z,82.35
2018-01-01T11:54:03.718Z,82.30
2018-01-01T11:55:03.715Z,82.92
2018-01-01T11:56:03.716Z,82.35
2018-01-01T11:57:03.708Z,82.17
2018-01-01T11:58:03.704Z,82.64
2018-01-01T11:59:03.701Z,82.26
2018-01-01T12:00:03.698Z,82.45
2018-01-01T12:01:03.699Z,82.64
2018-01-01T12:02:03.694Z,83.21
2018-01-01T12:03:03.691Z,83.12
2018-01-01T12:04:03.687Z,83.02
2018-01-01T12:05:03.686Z,83.02
2018-01-01T12:06:03.679Z,82.64
2018-01-01T12:07:03.676Z,83.40
2018-01-01T12:08:03.673Z,82.64
2018-01-01T12:09:03.664Z,82.89
2018-01-01T12:10:03.661Z,83.26
2018-01-01T12:11:03.655Z,83.07
2018-01-01T12:12:03.651Z,83.17
2018-01-01T12:13:03.647Z,84.03
2018-01-01T12:14:03.642Z,84.27
2018-01-01T12:15:03.638Z,83.80
2018-01-01T12:16:03.635Z,84.17
2018-01-01T12:17:03.634Z,85.13
2018-01-01T12:18:03.629Z,84.56
2018-01-01T12:19:03.624Z,84.94
2018-01-01T12:20:03.620Z,84.94
2018-01-01T12:21:03.617Z,84.17
2018-01-01T12:22:03.610Z,84.56
2018-01-01T12:23:03.606Z,84.75
2018-01-01T12:24:03.602Z,84.84
2018-01-01T12:25:03.593Z,84.94
2018-01-01T12:26:03.586Z,84.84
2018-01-01T12:27:03.582Z,84.65
2018-01-01T12:28:03.576Z,84.75
2018-01-01T12:29:03.573Z,84.94
2018-01-01T12:30:03.567Z,85.32
2018-01-01T12:31:03.560Z,85.41
2018-01-01T12:32:03.557Z,85.22
2018-01-01T12:33:03.555Z,85.41
2018-01-01T12:34:03.549Z,85.22
2018-01-01T12:35:03.544Z,85.32
2018-01-01T12:36:03.541Z,85.89
2018-01-01T12:37:03.533Z,85.89
2018-01-01T12:38:03.527Z,85.89
2018-01-01T12:39:03.521Z,85.99
2018-01-01T12:40:03.516Z,86.18
2018-01-01T12:41:03.508Z,85.22
2018-01-01T12:42:03.501Z,85.60
2018-01-01T12:43:03.496Z,85.32
2018-01-01T12:44:03.491Z,85.32
2018-01-01T12:45:03.489Z,85.13
2018-01-01T12:46:03.483Z,84.84
2018-01-01T12:47:03.477Z,84.27
2018-01-01T12:48:03.475Z,83.70
2018-01-01T12:49:03.463Z,84.27
2018-01-01T12:50:03.456Z,84.27
2018-01-01T12:51:03.452Z,83.89
2018-01-01T12:52:03.445Z,83.98